• Join FlightAware (Why Join?)
  • Login
  • US Flag 
07:55PM EDT


 

Airport Tracker/Info


-or-


 

Live Flight TrackerFlight Track Log ✈ N785JP ✈ 06-May-2013 ✈ 5B2 - KSYR

Flight Track Log - Related Links

Times and Time Zones

All times are in EDT time to prevent confusion due to time zone crossing. See the N785JP flight status page for this flight to view local times or setup timezone preferences in your user account.

Time Position Orientation Groundspeed Altitude Reporting Facility
EDT Latitude Longitude Course Direction KTS MPH feet Rate Location/Type
02:23PM 43.1112 -76.1063 273° West  Level Estimated
02:24PM 43.1112 -76.1063 36° Northeast  Level Estimated
02:25PM 43.1112 -76.1063 36° Northeast  Level Estimated
02:26PM 43.1112 -76.1063 36° Northeast  Level Estimated
02:27PM 43.1112 -76.1063 36° Northeast  Level Estimated
02:28PM 43.1112 -76.1063 36° Northeast  Level Estimated
02:29PM 43.1112 -76.1063 36° Northeast  Level Estimated
02:30PM 43.1112 -76.1063 36° Northeast  Level Estimated
02:31PM 43.1112 -76.1063 36° Northeast  Level Estimated
02:32PM 43.1112 -76.1063 36° Northeast  Level Estimated
02:45PM 43.0381 -76.0936 183° South 152 175 3,600  Level Boston Center
02:46PM 43.0033 -76.1314 219° Southwest 155 178 4,900 1,200 Climbing Boston Center
02:48PM 42.9292 -76.2031 215° Southwest 160 184 7,600 1,140 Climbing New York Center
02:49PM 42.8922 -76.2394 216° Southwest 160 184 8,800 1,140 Climbing New York Center
02:50PM 42.8572 -76.2761 218° Southwest 160 184 10,000 1,200 Climbing New York Center
02:51PM 42.8225 -76.3100 216° Southwest 160 184 11,300 1,200 Climbing New York Center
02:52PM 42.7853 -76.3492 218° Southwest 160 184 12,400 1,020 Climbing New York Center
02:53PM 42.7458 -76.3881 216° Southwest 160 184 13,400 960 Climbing New York Center
02:56PM 42.6139 -76.4556 201° Southwest 176 203 16,400 840 Climbing New York Center
02:57PM 42.5625 -76.4819 201° Southwest 187 215 16,900 1,800 Climbing New York Center
02:58PM 42.5072 -76.5081 199° South 204 235 20,000  Climbing New York Center
02:59PM 42.4436 -76.5333 196° South 226 260 17,000 -420 Descending New York Center
03:01PM 42.3328 -76.5853 199° South 217 250 18,900 780 Climbing New York Center
03:02PM 42.2858 -76.6064 198° South 198 228 19,500 480 Climbing New York Center
03:03PM 42.2347 -76.6300 199° South 198 228 19,900 120 Climbing New York Center
03:05PM 42.1178 -76.6839 199° South 219 252 20,000  Climbing New York Center
03:06PM 42.0581 -76.7092 197° South 225 259 20,000  Level New York Center
03:07PM 41.9964 -76.7344 197° South 231 266 20,000  Level New York Center
03:08PM 41.9367 -76.7653 201° Southwest 231 266 20,000  Level New York Center
03:09PM 41.8769 -76.7906 197° South 231 266 20,000  Level New York Center
03:10PM 41.8172 -76.8186 199° South 231 266 20,000  Level New York Center
03:11PM 41.7556 -76.8436 197° South 231 266 20,000  Level New York Center
03:12PM 41.6939 -76.8714 199° South 231 266 20,000  Level New York Center
03:13PM 41.6361 -76.8992 200° South 231 266 20,000  Level New York Center
03:14PM 41.5767 -76.9217 196° South 231 266 20,000  Level New York Center
03:16PM 41.4531 -76.9767 198° South 231 266 20,000  Level New York Center
03:17PM 41.3953 -77.0047 200° South 231 266 20,000  Level New York Center
03:19PM 41.2781 -77.0544 198° South 231 266 20,000  Level New York Center
03:20PM 41.2206 -77.0767 196° South 231 266 20,000  Level New York Center
03:21PM 41.1631 -77.1017 198° South 231 266 20,000  Level New York Center
03:22PM 41.1053 -77.1267 198° South 231 266 20,000  Level New York Center
03:24PM 40.9903 -77.1764 198° South 231 266 20,000  Level New York Center
03:25PM 40.9325 -77.2011 198° South 231 266 20,000  Level New York Center
03:26PM 40.8728 -77.2258 197° South 231 266 20,000  Level New York Center
03:28PM 40.7578 -77.2753 198° South 231 266 20,000  Level New York Center
03:32PM 40.5269 -77.3736 198° South 226 260 20,000  Level New York Center
03:33PM 40.4694 -77.3981 198° South 226 260 20,000  Level New York Center